createdAt,value
2018-09-02T00:00:01.424Z,0.00
2018-09-02T00:01:01.394Z,0.00
2018-09-02T00:02:01.363Z,0.00
2018-09-02T00:03:01.340Z,0.00
2018-09-02T00:04:01.310Z,0.00
2018-09-02T00:05:01.286Z,0.00
2018-09-02T00:06:01.258Z,0.00
2018-09-02T00:07:01.236Z,0.00
2018-09-02T00:08:01.206Z,0.00
2018-09-02T00:09:01.179Z,0.00
2018-09-02T00:10:01.156Z,0.00
2018-09-02T00:11:01.130Z,0.00
2018-09-02T00:12:01.104Z,0.00
2018-09-02T00:13:01.077Z,0.00
2018-09-02T00:14:01.049Z,0.00
2018-09-02T00:15:01.023Z,0.00
2018-09-02T00:16:00.997Z,0.00
2018-09-02T00:17:00.971Z,0.00
2018-09-02T00:18:01.149Z,0.00
2018-09-02T00:19:00.921Z,0.00
2018-09-02T00:20:00.893Z,0.00
2018-09-02T00:21:00.869Z,0.00
2018-09-02T00:22:00.850Z,0.00
2018-09-02T00:23:00.818Z,0.00
2018-09-02T00:24:00.787Z,0.00
2018-09-02T00:25:00.776Z,0.00
2018-09-02T00:26:00.734Z,0.00
2018-09-02T00:27:00.710Z,0.00
2018-09-02T00:28:00.684Z,0.00
2018-09-02T00:29:00.657Z,0.00
2018-09-02T00:30:00.634Z,0.00
2018-09-02T00:31:00.604Z,0.00
2018-09-02T00:32:00.579Z,0.00
2018-09-02T00:35:49.350Z,0.00
2018-09-02T00:36:49.123Z,0.00
2018-09-02T00:37:49.097Z,0.00
2018-09-02T00:38:49.071Z,0.00
2018-09-02T00:39:49.044Z,0.00
2018-09-02T00:40:49.018Z,0.00
2018-09-02T00:41:48.993Z,0.00
2018-09-02T00:42:48.963Z,0.00
2018-09-02T00:43:48.937Z,0.00
2018-09-02T00:44:48.909Z,0.00
2018-09-02T00:45:48.884Z,0.00
2018-09-02T00:46:48.863Z,0.00
2018-09-02T00:47:48.833Z,0.00
2018-09-02T00:48:48.810Z,0.00
2018-09-02T00:49:48.780Z,0.00
2018-09-02T00:50:48.753Z,0.00
2018-09-02T00:51:48.729Z,0.00
2018-09-02T00:52:48.705Z,0.00
2018-09-02T00:53:48.672Z,0.00
2018-09-02T00:54:48.646Z,0.00
2018-09-02T00:55:48.620Z,0.00
2018-09-02T00:56:48.656Z,0.00
2018-09-02T00:57:48.568Z,0.00
2018-09-02T00:58:48.546Z,0.00
2018-09-02T00:59:48.517Z,0.00
2018-09-02T01:00:48.490Z,0.00
2018-09-02T01:01:48.464Z,0.00
2018-09-02T01:02:48.435Z,0.00
2018-09-02T01:03:48.409Z,0.00
2018-09-02T01:04:48.388Z,0.00
2018-09-02T01:05:48.356Z,0.00
2018-09-02T01:06:48.329Z,0.00
2018-09-02T01:07:48.303Z,0.00
2018-09-02T01:08:48.276Z,0.00
2018-09-02T01:09:48.250Z,0.00
2018-09-02T01:10:48.226Z,0.00
2018-09-02T01:11:48.200Z,0.00
2018-09-02T01:12:48.172Z,0.00
2018-09-02T01:13:48.147Z,0.00
2018-09-02T01:14:48.118Z,0.00
2018-09-02T01:15:48.092Z,0.00
2018-09-02T01:16:48.065Z,0.00
2018-09-02T01:17:48.039Z,0.00
2018-09-02T01:18:48.019Z,0.00
2018-09-02T01:19:47.989Z,0.00
2018-09-02T01:20:47.960Z,0.00
2018-09-02T01:21:47.938Z,0.00
2018-09-02T01:22:47.911Z,0.00
2018-09-02T01:23:47.884Z,0.00
2018-09-02T01:24:47.857Z,0.00
2018-09-02T01:25:47.830Z,0.00
2018-09-02T01:26:47.806Z,0.00
2018-09-02T01:27:47.776Z,0.00
2018-09-02T01:28:47.748Z,0.00
2018-09-02T01:29:47.723Z,0.00
2018-09-02T01:30:47.699Z,0.00
2018-09-02T01:31:47.675Z,0.00
2018-09-02T01:32:47.646Z,0.00
2018-09-02T01:33:47.620Z,0.00
2018-09-02T01:34:47.591Z,0.00
2018-09-02T01:35:47.565Z,0.00
2018-09-02T01:36:47.538Z,0.00
2018-09-02T01:37:47.513Z,0.00
2018-09-02T01:38:47.488Z,0.00
2018-09-02T01:39:47.461Z,0.00
2018-09-02T01:40:47.433Z,0.00
2018-09-02T01:41:47.408Z,0.00
2018-09-02T01:42:47.380Z,0.00
2018-09-02T01:43:47.354Z,0.00
2018-09-02T01:44:47.333Z,0.00
2018-09-02T01:45:47.300Z,0.00
2018-09-02T01:46:47.276Z,0.00
2018-09-02T01:47:47.250Z,0.00
2018-09-02T01:48:47.221Z,0.00
2018-09-02T01:49:47.196Z,0.00
2018-09-02T01:50:47.171Z,0.00
2018-09-02T01:51:47.153Z,0.00
2018-09-02T01:52:47.117Z,0.00
2018-09-02T01:53:47.087Z,0.00
2018-09-02T01:54:47.063Z,0.00
2018-09-02T01:55:47.042Z,0.00
2018-09-02T01:56:47.010Z,0.00
2018-09-02T01:57:46.987Z,0.00
2018-09-02T01:58:46.960Z,0.00
2018-09-02T01:59:46.933Z,0.00
2018-09-02T02:00:46.908Z,0.00
2018-09-02T02:01:46.879Z,0.00
2018-09-02T02:02:46.855Z,0.00
2018-09-02T02:03:46.825Z,0.00
2018-09-02T02:04:46.796Z,0.00
2018-09-02T02:05:46.771Z,0.00
2018-09-02T02:06:46.746Z,0.00
2018-09-02T02:07:46.720Z,0.00
2018-09-02T02:08:46.693Z,0.00
2018-09-02T02:09:46.669Z,0.00
2018-09-02T02:10:46.644Z,0.00
2018-09-02T02:11:46.623Z,0.00
2018-09-02T02:12:46.590Z,0.00
2018-09-02T02:13:46.566Z,0.00
2018-09-02T02:14:46.532Z,0.00
2018-09-02T02:15:46.506Z,0.00
2018-09-02T02:16:46.479Z,0.00
2018-09-02T02:17:46.452Z,0.00
2018-09-02T02:18:46.433Z,0.00
2018-09-02T02:19:46.401Z,0.00
2018-09-02T02:20:46.373Z,0.00
2018-09-02T02:21:46.349Z,0.00
2018-09-02T02:22:46.324Z,0.00
2018-09-02T02:23:46.294Z,0.00
2018-09-02T02:24:46.267Z,0.00
2018-09-02T02:25:46.241Z,0.00
2018-09-02T02:26:46.214Z,0.00
2018-09-02T02:27:46.190Z,0.00
2018-09-02T02:28:46.163Z,0.00
2018-09-02T02:29:46.135Z,0.00
2018-09-02T02:30:46.116Z,0.00
2018-09-02T02:31:46.084Z,0.00
2018-09-02T02:32:46.061Z,0.00
2018-09-02T02:33:46.032Z,0.00
2018-09-02T02:34:46.002Z,0.00
2018-09-02T02:35:45.987Z,0.00
2018-09-02T02:36:45.949Z,0.00
2018-09-02T02:37:45.923Z,0.00
2018-09-02T02:38:45.897Z,0.00
2018-09-02T02:39:45.872Z,0.00
2018-09-02T02:40:46.052Z,0.00
2018-09-02T02:41:45.817Z,0.00
2018-09-02T02:42:45.793Z,0.00
2018-09-02T02:43:45.767Z,0.00
2018-09-02T02:44:45.738Z,0.00
2018-09-02T02:45:45.712Z,0.00
2018-09-02T02:46:45.684Z,0.00
2018-09-02T02:47:45.657Z,0.00
2018-09-02T02:48:45.629Z,0.00
2018-09-02T02:49:45.609Z,0.00
2018-09-02T02:50:45.579Z,0.00
2018-09-02T02:51:45.552Z,0.00
2018-09-02T02:52:45.525Z,0.00
2018-09-02T02:53:45.498Z,0.00
2018-09-02T02:54:45.471Z,0.00
2018-09-02T02:55:45.444Z,0.00
2018-09-02T02:56:45.416Z,0.00
2018-09-02T02:57:45.390Z,0.00
2018-09-02T02:58:45.364Z,0.00
2018-09-02T02:59:45.341Z,0.00
2018-09-02T03:00:45.321Z,0.00
2018-09-02T03:01:45.284Z,0.00
2018-09-02T03:02:45.269Z,0.00
2018-09-02T03:03:45.233Z,0.00
2018-09-02T03:04:45.206Z,0.00
2018-09-02T03:05:45.181Z,0.00
2018-09-02T03:06:45.151Z,0.00
2018-09-02T03:07:45.125Z,0.00
2018-09-02T03:08:45.098Z,0.00
2018-09-02T03:09:45.072Z,0.00
2018-09-02T03:10:45.067Z,0.00
2018-09-02T03:11:45.030Z,0.00
2018-09-02T03:12:44.992Z,0.00
2018-09-02T03:13:44.967Z,0.00
2018-09-02T03:14:44.942Z,0.00
2018-09-02T03:15:44.914Z,0.00
2018-09-02T03:16:44.891Z,0.00
2018-09-02T03:17:44.860Z,0.00
2018-09-02T03:18:44.833Z,0.00
2018-09-02T03:19:44.807Z,0.00
2018-09-02T03:20:44.780Z,0.00
2018-09-02T03:21:44.751Z,0.00
2018-09-02T03:22:44.729Z,0.00
2018-09-02T03:23:44.701Z,0.00
2018-09-02T03:24:44.674Z,0.00
2018-09-02T03:25:44.646Z,0.00
2018-09-02T03:26:44.619Z,0.00
2018-09-02T03:27:44.592Z,0.00
2018-09-02T03:28:44.572Z,0.00
2018-09-02T03:29:44.542Z,0.00
2018-09-02T03:30:44.513Z,0.00
2018-09-02T03:31:44.486Z,0.00
2018-09-02T03:32:44.457Z,0.00
2018-09-02T03:33:44.590Z,0.00
2018-09-02T03:34:44.407Z,0.00
2018-09-02T03:35:44.383Z,0.00
2018-09-02T03:36:44.352Z,0.00
2018-09-02T03:37:44.325Z,0.00
2018-09-02T03:38:44.302Z,0.00
2018-09-02T03:39:44.270Z,0.00
2018-09-02T03:40:44.242Z,0.00
2018-09-02T03:41:44.215Z,0.00
2018-09-02T03:42:44.192Z,0.00
2018-09-02T03:43:44.165Z,0.00
2018-09-02T03:44:44.139Z,0.00
2018-09-02T03:45:44.112Z,0.00
2018-09-02T03:46:44.085Z,0.00
2018-09-02T03:47:44.055Z,0.00
2018-09-02T03:48:44.031Z,0.00
2018-09-02T03:49:44.002Z,0.00
2018-09-02T03:50:43.978Z,4.00
2018-09-02T03:51:43.951Z,4.00
2018-09-02T03:52:43.928Z,4.00
2018-09-02T03:53:43.896Z,0.00
2018-09-02T03:54:43.872Z,4.00
2018-09-02T03:55:43.841Z,4.00
2018-09-02T03:56:43.819Z,4.00
2018-09-02T03:57:43.792Z,8.00
2018-09-02T03:58:43.763Z,4.00
2018-09-02T03:59:43.740Z,8.00
2018-09-02T04:00:43.711Z,8.00
2018-09-02T04:01:43.682Z,12.00
2018-09-02T04:02:43.655Z,12.00
2018-09-02T04:03:43.630Z,12.00
2018-09-02T04:04:43.601Z,20.00
2018-09-02T04:05:43.579Z,24.00
2018-09-02T04:06:43.546Z,24.00
2018-09-02T04:07:43.524Z,32.00
2018-09-02T04:08:43.492Z,32.00
2018-09-02T04:09:43.465Z,40.00
2018-09-02T04:10:43.441Z,44.00
2018-09-02T04:11:43.415Z,56.00
2018-09-02T04:12:43.387Z,68.00
2018-09-02T04:13:43.361Z,76.00
2018-09-02T04:14:43.331Z,92.00
2018-09-02T04:15:43.306Z,108.00
2018-09-02T04:16:43.281Z,124.00
2018-09-02T04:17:43.249Z,144.00
2018-09-02T04:18:43.228Z,160.00
2018-09-02T04:19:43.348Z,180.00
2018-09-02T04:20:43.170Z,200.00
2018-09-02T04:21:43.144Z,228.00
2018-09-02T04:22:43.119Z,256.00
2018-09-02T04:23:43.098Z,288.00
2018-09-02T04:24:43.066Z,324.00
2018-09-02T04:25:43.038Z,356.00
2018-09-02T04:26:43.011Z,396.00
2018-09-02T04:27:42.991Z,436.00
2018-09-02T04:28:42.956Z,476.00
2018-09-02T04:29:42.929Z,520.00
2018-09-02T04:30:42.903Z,564.00
2018-09-02T04:31:43.029Z,616.00
2018-09-02T04:32:42.850Z,668.00
2018-09-02T04:33:42.956Z,724.00
2018-09-02T04:34:42.797Z,780.00
2018-09-02T04:35:42.771Z,840.00
2018-09-02T04:36:42.745Z,904.00
2018-09-02T04:37:42.716Z,968.00
2018-09-02T04:38:42.694Z,1044.00
2018-09-02T04:39:42.660Z,1120.00
2018-09-02T04:40:42.634Z,1196.00
2018-09-02T04:41:42.606Z,1280.00
2018-09-02T04:42:42.582Z,1360.00
2018-09-02T04:43:42.555Z,1448.00
2018-09-02T04:44:42.527Z,1536.00
2018-09-02T04:45:42.503Z,1624.00
2018-09-02T04:46:42.472Z,1716.00
2018-09-02T04:47:42.447Z,1812.00
2018-09-02T04:48:42.418Z,1912.00
2018-09-02T04:49:42.392Z,2012.00
2018-09-02T04:50:42.365Z,2112.00
2018-09-02T04:51:42.339Z,2216.00
2018-09-02T04:52:42.314Z,2324.00
2018-09-02T04:53:42.287Z,2436.00
2018-09-02T04:54:42.259Z,2548.00
2018-09-02T04:55:42.735Z,2660.00
2018-09-02T04:56:42.206Z,2780.00
2018-09-02T04:57:42.178Z,2892.00
2018-09-02T04:58:42.153Z,3008.00
2018-09-02T04:59:42.127Z,3128.00
2018-09-02T05:00:42.097Z,3244.00
2018-09-02T05:01:42.071Z,3364.00
2018-09-02T05:02:42.046Z,3480.00
2018-09-02T05:03:42.029Z,3608.00
2018-09-02T05:04:41.992Z,3732.00
2018-09-02T05:05:41.966Z,3864.00
2018-09-02T05:06:41.940Z,3996.00
2018-09-02T05:07:41.912Z,4120.00
2018-09-02T05:08:41.887Z,4240.00
2018-09-02T05:09:41.859Z,4356.00
2018-09-02T05:10:41.831Z,4472.00
2018-09-02T05:11:41.809Z,4592.00
2018-09-02T05:12:41.783Z,4700.00
2018-09-02T05:13:41.749Z,4816.00
2018-09-02T05:14:41.725Z,4924.00
2018-09-02T05:15:41.699Z,5044.00
2018-09-02T05:16:41.670Z,5152.00
2018-09-02T05:17:41.645Z,5260.00
2018-09-02T05:18:41.616Z,5372.00
2018-09-02T05:19:41.590Z,5556.00
2018-09-02T05:20:41.564Z,5964.00
2018-09-02T05:21:41.537Z,6364.00
2018-09-02T05:22:41.511Z,6816.00
2018-09-02T05:23:41.633Z,7216.00
2018-09-02T05:24:41.457Z,7484.00
2018-09-02T05:25:41.432Z,7676.00
2018-09-02T05:26:41.405Z,7988.00
2018-09-02T05:27:41.380Z,8184.00
2018-09-02T05:28:41.356Z,8452.00
2018-09-02T05:29:41.331Z,8660.00
2018-09-02T05:30:41.299Z,8892.00
2018-09-02T05:31:41.275Z,9096.00
2018-09-02T05:32:41.246Z,9276.00
2018-09-02T05:33:41.220Z,9528.00
2018-09-02T05:34:41.196Z,9748.00
2018-09-02T05:35:41.171Z,9952.00
2018-09-02T05:36:41.145Z,10136.00
2018-09-02T05:37:41.118Z,10352.00
2018-09-02T05:38:41.092Z,10552.00
2018-09-02T05:39:41.067Z,10772.00
2018-09-02T05:40:41.040Z,10868.00
2018-09-02T05:41:41.028Z,11136.00
2018-09-02T05:42:40.988Z,11200.00
2018-09-02T05:43:40.969Z,11452.00
2018-09-02T05:44:40.938Z,11716.00
2018-09-02T05:45:40.915Z,11972.00
2018-09-02T05:46:40.890Z,12272.00
2018-09-02T05:47:40.865Z,12484.00
2018-09-02T05:48:40.839Z,12748.00
2018-09-02T05:49:40.816Z,12896.00
2018-09-02T05:50:40.789Z,13324.00
2018-09-02T05:51:40.764Z,13636.00
2018-09-02T05:52:40.738Z,14240.00
2018-09-02T05:53:40.714Z,15072.00
2018-09-02T05:54:40.691Z,15296.00
2018-09-02T05:55:40.667Z,15712.00
2018-09-02T05:56:40.648Z,16064.00
2018-09-02T05:57:40.647Z,16096.00
2018-09-02T05:58:40.591Z,15904.00
2018-09-02T06:07:24.430Z,17504.00
2018-09-02T06:08:24.203Z,17792.00
2018-09-02T06:09:24.381Z,18048.00
2018-09-02T06:10:24.157Z,18688.00
2018-09-02T06:11:24.132Z,19168.00
2018-09-02T06:12:24.108Z,19968.00
2018-09-02T06:13:24.086Z,20992.00
2018-09-02T06:15:06.413Z,22368.00
2018-09-02T06:16:48.545Z,22368.00
2018-09-02T06:17:48.517Z,22048.00
2018-09-02T06:18:48.296Z,22336.00
2018-09-02T06:19:48.271Z,22688.00
2018-09-02T06:20:48.250Z,23200.00
2018-09-02T06:21:48.222Z,23904.00
2018-09-02T06:22:48.204Z,24064.00
2018-09-02T06:23:48.177Z,24192.00
2018-09-02T06:24:48.154Z,24704.00
2018-09-02T06:25:48.332Z,25472.00
2018-09-02T06:26:48.309Z,26400.00
2018-09-02T06:29:54.750Z,20032.00
2018-09-02T06:30:54.520Z,26720.00
2018-09-02T06:31:54.700Z,28320.00
2018-09-02T06:32:54.769Z,26720.00
2018-09-02T06:33:54.456Z,28000.00
2018-09-02T06:34:54.433Z,24128.00
2018-09-02T06:35:54.612Z,27296.00
2018-09-02T06:37:36.742Z,30816.00
2018-09-02T06:38:36.720Z,32416.00
2018-09-02T06:39:36.641Z,33216.00
2018-09-02T06:40:36.476Z,32704.00
2018-09-02T06:41:36.456Z,33152.00
2018-09-02T06:42:36.633Z,32608.00
2018-09-02T06:43:36.411Z,32928.00
2018-09-02T06:44:36.391Z,34400.00
2018-09-02T06:45:36.595Z,35296.00
2018-09-02T06:49:25.179Z,35872.00
2018-09-02T06:51:07.291Z,35552.00
2018-09-02T06:52:07.071Z,37344.00
2018-09-02T06:53:07.047Z,37920.00
2018-09-02T06:54:07.030Z,37632.00
2018-09-02T06:55:07.007Z,39168.00
2018-09-02T07:00:20.110Z,38368.00
2018-09-02T07:01:20.087Z,38880.00
2018-09-02T07:02:19.864Z,39232.00
2018-09-02T07:03:19.846Z,38368.00
2018-09-02T07:04:19.824Z,36800.00
2018-09-02T07:06:02.158Z,37408.00
2018-09-02T07:07:01.936Z,34112.00
2018-09-02T07:12:18.271Z,29824.00
2018-09-02T07:13:14.821Z,27552.00
2018-09-02T07:14:14.814Z,27456.00
2018-09-02T07:15:14.803Z,27264.00
2018-09-02T07:16:14.760Z,26496.00
2018-09-02T07:17:14.745Z,26048.00
2018-09-02T07:18:14.721Z,25728.00
2018-09-02T07:19:14.699Z,26048.00
2018-09-02T07:20:14.938Z,38080.00
2018-09-02T07:21:17.483Z,52032.00
2018-09-02T07:22:14.639Z,46688.00
2018-09-02T07:23:14.831Z,39936.00
2018-09-02T07:24:14.601Z,36992.00
2018-09-02T07:25:14.584Z,39104.00
2018-09-02T07:26:14.563Z,40928.00
2018-09-02T07:27:14.746Z,42080.00
2018-09-02T07:28:14.525Z,41760.00
2018-09-02T07:29:14.505Z,40768.00
2018-09-02T07:30:14.486Z,39328.00
2018-09-02T07:31:14.470Z,40320.00
2018-09-02T07:32:14.649Z,40928.00
2018-09-02T07:33:14.631Z,40832.00
2018-09-02T07:34:14.409Z,41600.00
2018-09-02T07:35:14.393Z,42976.00
2018-09-02T07:36:15.791Z,43040.00
2018-09-02T07:37:14.562Z,41472.00
2018-09-02T07:38:56.696Z,42528.00
2018-09-02T07:39:56.675Z,42080.00
2018-09-02T07:40:56.660Z,41184.00
2018-09-02T07:41:56.437Z,41344.00
2018-09-02T07:45:03.088Z,41088.00
2018-09-02T07:46:02.869Z,41824.00
2018-09-02T07:47:02.848Z,42048.00
2018-09-02T07:49:27.348Z,42208.00
2018-09-02T07:55:15.913Z,46688.00
2018-09-02T07:56:15.692Z,47744.00
2018-09-02T07:57:15.674Z,48256.00
2018-09-02T07:58:15.658Z,48288.00
2018-09-02T07:59:15.652Z,48928.00
2018-09-02T08:00:15.620Z,49376.00
2018-09-02T08:01:15.610Z,50368.00
2018-09-02T08:02:15.584Z,49888.00
2018-09-02T08:03:15.566Z,51712.00
2018-09-02T08:04:15.549Z,54464.00
2018-09-02T08:05:15.530Z,29728.00
2018-09-02T08:06:15.517Z,53600.00
2018-09-02T08:07:15.497Z,54336.00
2018-09-02T08:08:15.480Z,55296.00
2018-09-02T08:09:15.667Z,55104.00
2018-09-02T08:10:57.802Z,55104.00
2018-09-02T08:11:57.785Z,56288.00
2018-09-02T08:13:39.924Z,24736.00
2018-09-02T08:14:39.707Z,60288.00
2018-09-02T08:15:39.689Z,62752.00
2018-09-02T08:16:39.673Z,58976.00
2018-09-02T08:17:39.654Z,72288.00
2018-09-02T08:18:39.636Z,72832.00
2018-09-02T08:19:39.633Z,39648.00
2018-09-02T08:20:39.803Z,60416.00
2018-09-02T08:21:39.787Z,61248.00
2018-09-02T08:22:39.568Z,64288.00
2018-09-02T08:51:45.828Z,57856.00
2018-09-02T08:59:06.632Z,89248.00
2018-09-02T09:00:05.199Z,87392.00
2018-09-02T09:01:05.182Z,87040.00
2018-09-02T09:02:05.370Z,65632.00
2018-09-02T09:03:05.353Z,90112.00
2018-09-02T09:04:05.334Z,92608.00
2018-09-02T09:05:47.476Z,89120.00
2018-09-02T09:08:11.943Z,82112.00
2018-09-02T09:09:11.701Z,91712.00
2018-09-02T09:10:11.743Z,49856.00
2018-09-02T09:11:11.529Z,90336.00
2018-09-02T09:12:11.512Z,91360.00
2018-09-02T09:23:01.921Z,92384.00
2018-09-02T09:24:01.797Z,90720.00
2018-09-02T09:25:01.739Z,90624.00
2018-09-02T09:26:01.664Z,91136.00
2018-09-02T09:27:01.666Z,88000.00
2018-09-02T09:28:01.630Z,85312.00
2018-09-02T09:30:26.132Z,62016.00
2018-09-02T09:31:25.919Z,88096.00
2018-09-02T09:32:25.974Z,55744.00
2018-09-02T09:33:25.885Z,24896.00
2018-09-02T09:34:25.871Z,25216.00
2018-09-02T09:36:08.215Z,32448.00
2018-09-02T09:37:08.197Z,92512.00
2018-09-02T09:38:07.979Z,95616.00
2018-09-02T09:39:07.963Z,95680.00
2018-09-02T09:40:07.946Z,94208.00
2018-09-02T09:41:08.132Z,93504.00
2018-09-02T09:42:07.921Z,90368.00
2018-09-02T09:43:07.899Z,92320.00
2018-09-02T09:44:10.704Z,97184.00
2018-09-02T09:45:08.068Z,93824.00
2018-09-02T09:46:08.312Z,93536.00
2018-09-02T09:54:51.777Z,79552.00
2018-09-02T09:55:51.568Z,95840.00
2018-09-02T09:56:51.543Z,38752.00
2018-09-02T09:57:51.529Z,36096.00
2018-09-02T09:58:51.512Z,66176.00
2018-09-02T09:59:51.496Z,43104.00
2018-09-02T10:00:51.480Z,93952.00
2018-09-02T10:01:51.461Z,65696.00
2018-09-02T10:04:15.964Z,99648.00
2018-09-02T10:05:15.749Z,46432.00
2018-09-02T12:35:13.545Z,91456.00
2018-09-02T12:36:13.531Z,93920.00
2018-09-02T12:37:13.516Z,91712.00
2018-09-02T12:38:13.503Z,26912.00
2018-09-02T12:39:13.295Z,26528.00
2018-09-02T12:40:13.476Z,86720.00
2018-09-02T12:41:13.258Z,87456.00
2018-09-02T12:42:13.280Z,42720.00
2018-09-02T12:43:13.226Z,90272.00
2018-09-02T12:44:13.212Z,91264.00
2018-09-02T12:45:13.198Z,93856.00
2018-09-02T12:46:13.184Z,96480.00
2018-09-02T12:47:13.173Z,96256.00
2018-09-02T12:48:13.194Z,94624.00
2018-09-02T12:49:13.141Z,93440.00
2018-09-02T12:50:13.133Z,90688.00
2018-09-02T12:51:13.114Z,79744.00
2018-09-02T12:52:13.099Z,87488.00
2018-09-02T12:53:13.086Z,67008.00
2018-09-02T12:54:13.087Z,61760.00
2018-09-02T12:55:13.100Z,86272.00
2018-09-02T12:56:13.041Z,87072.00
2018-09-02T12:57:13.031Z,85088.00
2018-09-02T12:58:13.015Z,86784.00
2018-09-02T12:59:13.009Z,86720.00
2018-09-02T13:00:12.990Z,79808.00
2018-09-02T13:01:13.008Z,92608.00
2018-09-02T13:02:12.957Z,89728.00
2018-09-02T13:03:13.146Z,82912.00
2018-09-02T13:04:12.930Z,25344.00
2018-09-02T13:05:12.914Z,22784.00
2018-09-02T13:06:13.101Z,22016.00
2018-09-02T13:07:12.889Z,21760.00
2018-09-02T13:08:12.870Z,20480.00
2018-09-02T13:09:12.857Z,19392.00
2018-09-02T13:10:12.844Z,20000.00
2018-09-02T13:11:13.033Z,30176.00
2018-09-02T13:12:13.016Z,65152.00
2018-09-02T13:13:13.007Z,65728.00
2018-09-02T13:14:12.784Z,51488.00
2018-09-02T13:15:12.981Z,26784.00
2018-09-02T13:16:12.746Z,40960.00
2018-09-02T13:17:12.730Z,58112.00
2018-09-02T13:18:12.723Z,60192.00
2018-09-02T13:19:12.904Z,61888.00
2018-09-02T13:20:12.684Z,59552.00
2018-09-02T13:21:12.667Z,37600.00
2018-09-02T13:22:12.655Z,30976.00
2018-09-02T13:23:12.639Z,29760.00
2018-09-02T13:24:12.623Z,30816.00
2018-09-02T13:25:12.603Z,25856.00
2018-09-02T13:26:12.787Z,25632.00
2018-09-02T13:27:12.770Z,25664.00
2018-09-02T13:28:12.557Z,30912.00
2018-09-02T13:29:12.534Z,137280.00
2018-09-02T13:30:12.526Z,114176.00
2018-09-02T13:31:12.504Z,93152.00
2018-09-02T13:32:12.486Z,24192.00
2018-09-02T13:33:12.469Z,23104.00
2018-09-02T13:34:12.450Z,22784.00
2018-09-02T13:35:12.435Z,24000.00
2018-09-02T13:36:12.618Z,24800.00
2018-09-02T13:37:12.602Z,25088.00
2018-09-02T13:38:12.589Z,25632.00
2018-09-02T13:39:12.568Z,58592.00
2018-09-02T13:40:12.374Z,33536.00
2018-09-02T13:41:12.332Z,99264.00
2018-09-02T13:42:12.513Z,103872.00
2018-09-02T13:43:12.392Z,101632.00
2018-09-02T13:44:12.277Z,100224.00
2018-09-02T13:45:12.461Z,100352.00
2018-09-02T13:46:12.245Z,100928.00
2018-09-02T13:47:12.233Z,71008.00
2018-09-02T13:48:12.210Z,28352.00
2018-09-02T13:49:12.200Z,28704.00
2018-09-02T13:50:12.176Z,100064.00
2018-09-02T13:51:12.159Z,97120.00
2018-09-02T13:52:12.142Z,84448.00
2018-09-02T13:53:12.326Z,94240.00
2018-09-02T13:54:12.109Z,94368.00
2018-09-02T13:57:18.778Z,45216.00
2018-09-02T13:58:18.554Z,101728.00
2018-09-02T13:59:18.739Z,95840.00
2018-09-02T14:00:18.521Z,82304.00
2018-09-02T14:01:18.516Z,77088.00
2018-09-02T14:02:18.488Z,76224.00
2018-09-02T14:03:18.673Z,75424.00
2018-09-02T14:04:18.655Z,75040.00
2018-09-02T14:05:18.437Z,75936.00
2018-09-02T14:06:18.423Z,74880.00
2018-09-02T14:07:18.405Z,75552.00
2018-09-02T14:08:18.492Z,78112.00
2018-09-02T14:09:18.577Z,78592.00
2018-09-02T14:10:18.358Z,76960.00
2018-09-02T14:11:18.546Z,73600.00
2018-09-02T14:12:18.533Z,75200.00
2018-09-02T14:13:18.314Z,75136.00
2018-09-02T14:14:18.302Z,76512.00
2018-09-02T14:15:18.282Z,77568.00
2018-09-02T14:16:18.267Z,77888.00
2018-09-02T14:17:18.303Z,78080.00
2018-09-02T14:18:18.236Z,73632.00
2018-09-02T14:19:18.223Z,73344.00
2018-09-02T14:20:18.210Z,76160.00
2018-09-02T14:21:18.195Z,76928.00
2018-09-02T14:22:18.180Z,49760.00
2018-09-02T14:23:18.163Z,73088.00
2018-09-02T14:24:18.146Z,72000.00
2018-09-02T14:25:18.133Z,54272.00
2018-09-02T14:26:18.115Z,72800.00
2018-09-02T14:27:18.100Z,61056.00
2018-09-02T14:28:18.095Z,77472.00
2018-09-02T14:29:18.071Z,62176.00
2018-09-02T14:30:18.054Z,24064.00
2018-09-02T14:31:18.040Z,71392.00
2018-09-02T14:32:18.030Z,47360.00
2018-09-02T14:33:18.011Z,42368.00
2018-09-02T14:34:17.994Z,52128.00
2018-09-02T14:35:17.979Z,70912.00
2018-09-02T14:36:17.962Z,62784.00
2018-09-02T14:37:17.946Z,76896.00
2018-09-02T14:38:17.930Z,39168.00
2018-09-02T14:39:17.914Z,71296.00
2018-09-02T14:40:17.901Z,70784.00
2018-09-02T14:41:17.884Z,69248.00
2018-09-02T14:42:17.868Z,53152.00
2018-09-02T14:43:17.894Z,58144.00
2018-09-02T14:44:17.837Z,65632.00
2018-09-02T14:45:17.823Z,67840.00
2018-09-02T14:46:17.807Z,64832.00
2018-09-02T14:47:17.788Z,64992.00
2018-09-02T14:48:17.772Z,40288.00
2018-09-02T14:49:17.755Z,62688.00
2018-09-02T14:50:17.739Z,58720.00
2018-09-02T14:51:17.727Z,62176.00
2018-09-02T14:52:17.718Z,60640.00
2018-09-02T14:53:17.693Z,59968.00
2018-09-02T14:54:17.676Z,59072.00
2018-09-02T14:55:17.659Z,59776.00
2018-09-02T14:56:17.642Z,61056.00
2018-09-02T14:57:17.627Z,60512.00
2018-09-02T14:58:17.608Z,57856.00
2018-09-02T14:59:17.594Z,56704.00
2018-09-02T15:00:17.576Z,58464.00
2018-09-02T15:01:17.566Z,56640.00
2018-09-02T15:02:17.544Z,48384.00
2018-09-02T15:03:17.525Z,52416.00
2018-09-02T15:04:17.508Z,30912.00
2018-09-02T15:05:17.492Z,40544.00
2018-09-02T15:06:17.475Z,20960.00
2018-09-02T15:07:17.459Z,43488.00
2018-09-02T15:08:17.446Z,58368.00
2018-09-02T15:09:17.436Z,57248.00
2018-09-02T15:10:17.414Z,53984.00
2018-09-02T15:11:17.434Z,24288.00
2018-09-02T15:12:17.380Z,25568.00
2018-09-02T15:13:17.364Z,64032.00
2018-09-02T15:14:17.351Z,59680.00
2018-09-02T15:15:17.332Z,57728.00
2018-09-02T15:16:17.315Z,55680.00
2018-09-02T15:17:17.300Z,53056.00
2018-09-02T15:18:17.283Z,50976.00
2018-09-02T15:19:17.271Z,45728.00
2018-09-02T15:20:17.455Z,16456.00
2018-09-02T15:21:17.404Z,15516.00
2018-09-02T15:22:17.425Z,14992.00
2018-09-02T15:23:17.205Z,14676.00
2018-09-02T15:24:17.389Z,14636.00
2018-09-02T15:25:17.173Z,14420.00
2018-09-02T15:26:17.149Z,14124.00
2018-09-02T15:27:17.447Z,13964.00
2018-09-02T15:28:17.117Z,14172.00
2018-09-02T15:29:17.100Z,47136.00
2018-09-02T15:30:17.283Z,46336.00
2018-09-02T15:31:19.887Z,45696.00
2018-09-02T15:32:17.248Z,45120.00
2018-09-02T15:33:17.229Z,43968.00
2018-09-02T15:34:17.007Z,42240.00
2018-09-02T15:35:16.989Z,42976.00
2018-09-02T15:36:16.968Z,44032.00
2018-09-02T15:37:16.952Z,43264.00
2018-09-02T15:38:16.935Z,42464.00
2018-09-02T15:39:16.926Z,41728.00
2018-09-02T15:40:16.897Z,41376.00
2018-09-02T15:41:16.881Z,41216.00
2018-09-02T15:42:16.859Z,41440.00
2018-09-02T15:43:17.452Z,42176.00
2018-09-02T15:44:16.820Z,42816.00
2018-09-02T15:45:16.808Z,44448.00
2018-09-02T15:46:16.787Z,44512.00
2018-09-02T15:47:16.763Z,45184.00
2018-09-02T15:48:16.747Z,47680.00
2018-09-02T15:49:16.727Z,47840.00
2018-09-02T15:50:16.708Z,45248.00
2018-09-02T15:51:16.691Z,44448.00
2018-09-02T15:52:16.676Z,44000.00
2018-09-02T15:53:16.859Z,40640.00
2018-09-02T15:54:16.637Z,32992.00
2018-09-02T15:55:16.621Z,14548.00
2018-09-02T15:56:16.615Z,14100.00
2018-09-02T15:57:16.582Z,13556.00
2018-09-02T15:58:16.565Z,21216.00
2018-09-02T15:59:16.549Z,14460.00
2018-09-02T16:00:16.731Z,28096.00
2018-09-02T16:01:17.926Z,22784.00
2018-09-02T16:02:16.490Z,12564.00
2018-09-02T16:03:16.674Z,12052.00
2018-09-02T16:04:16.662Z,23296.00
2018-09-02T16:05:16.637Z,18944.00
2018-09-02T16:06:16.631Z,25952.00
2018-09-02T16:07:16.597Z,22592.00
2018-09-02T16:08:16.576Z,26944.00
2018-09-02T16:09:16.356Z,25504.00
2018-09-02T16:10:16.338Z,17696.00
2018-09-02T16:11:16.316Z,15680.00
2018-09-02T16:12:16.500Z,26624.00
2018-09-02T16:13:16.479Z,25952.00
2018-09-02T16:14:16.263Z,26112.00
2018-09-02T16:15:16.237Z,26592.00
2018-09-02T16:16:16.220Z,25568.00
2018-09-02T16:17:16.196Z,25856.00
2018-09-02T16:18:16.377Z,25888.00
2018-09-02T16:19:16.358Z,25280.00
2018-09-02T16:20:16.238Z,24928.00
2018-09-02T16:21:16.117Z,25312.00
2018-09-02T16:22:16.096Z,24480.00